Getzville 2E NY

43° 01' 25"N, 78° 44' 55"W, Elevation 589 ft.
Eastern Time

Hourly observations for the last 72 hours

Date Time Temperature (°F) Humi-
dity

(%)
Wind
(mph)
Pressure Rain (in) Sun
(W/m2)
ET
(in)
Air Dew 6 Hour 1 Hr 3 Hr 6 Hr Day
Alt
(in)
Sea
Level

(mb)
Max Min
6 15:00 71.8 63.5 75 E 4 G 10 29.96 1014.7 0.00 592 0.061
6 14:00 72.1 64.5 72.8 65.8 77 E 4 G 10 29.96 1014.6 0.00 517 0.046
6 13:00 69.9 63.5 80 ESE 5 G 12 29.96 1014.5 0.00 512 0.036
6 12:00 71.5 64.3 78 E 3 G 8 29.95 1014.2 0.00 225 0.025
6 11:00 70.8 63.6 78 E 4 G 10 29.94 1014.1 0.00 290 0.016
6 10:00 69.4 63.3 81 E 3 G 9 29.92 1013.4 0.00 345 0.009
6 09:00 68.2 63.9 86 NW 0 G 3 29.92 1013.2 0.00 269 0.005
6 08:00 65.8 63.1 65.8 61.2 91 W 0 G 3 29.91 1012.9 0.00 186 0.003
6 07:00 63.5 61.1 92 Calm 29.91 1013.0 0.00 37 0.002
6 06:00 61.7 59.0 91 SSE 0 G 1 29.89 1012.3 0.00 5 0.002
6 05:00 61.6 58.9 91 Calm 29.86 1011.2 0.00 0 0.002
6 04:00 62.5 59.5 90 Calm 29.85 1010.9 0.00 0 0.002
6 03:00 63.6 60.3 89 Calm 29.86 1011.1 0.00 0 0.002
6 02:00 65.3 61.3 75.0 65.3 87 Calm 29.84 1010.6 0.00 0 0.001
6 01:00 67.8 63.1 85 W 1 G 4 29.84 1010.4 0.00 0 0.000
6 00:00 68.7 63.7 84 WNW 2 G 5 29.82 1010.0 0.07 0 0.061
5 23:00 69.4 64.7 85 NW 2 G 7 29.80 1009.3 0.07 0 0.060
5 22:00 71.1 67.7 89 Calm 29.79 1008.8 0.07 0 0.060
5 21:00 73.3 69.2 87 W 0 G 3 29.76 1007.8 0.07 0 0.059
5 20:00 75.0 70.2 76.7 69.7 85 W 2 G 7 29.75 1007.6 0.07 35 0.056
5 19:00 75.9 70.7 84 W 3 G 12 29.74 1007.0 0.07 183 0.049
5 18:00 76.3 71.5 85 W 3 G 11 29.74 1007.1 0.07 257 0.041
5 17:00 74.4 70.3 87 W 4 G 13 29.75 1007.4 0.07 320 0.035
5 16:00 73.8 70.0 88 SW 2 G 12 29.76 1007.7 0.07 195 0.030
5 15:00 72.3 68.9 89 WSW 2 G 16 29.76 1008.0 0.07 114 0.026
5 14:00 69.7 66.6 70.9 67.4 90 SSW 0 G 3 29.78 1008.5 0.03 0.07 0.07 174 0.022
5 13:00 67.9 64.9 90 SSE 0 G 2 29.79 1009.0 0.01 0.07 160 0.019
5 12:00 67.9 64.2 88 ESE 0 G 3 29.83 1010.1 0.02 0.06 102 0.016
5 11:00 69.2 64.8 86 SW 0 G 2 29.85 1010.8 0.03 0.04 0.04 116 0.013
5 10:00 70.4 66.0 86 W 0 G 1 29.85 1010.9 0.01 93 0.010
5 09:00 70.3 64.2 81 Calm 29.87 1011.7 0.01 0.01 86 0.008
5 08:00 70.2 64.1 70.2 67.6 81 Calm 29.88 1011.9 0.00 49 0.006
5 07:00 68.3 63.3 84 Calm 29.91 1012.7 0.00 44 0.005
5 06:00 67.7 62.7 84 Calm 29.92 1013.3 0.00 0 0.005
5 05:00 68.0 62.6 83 Calm 29.93 1013.6 0.00 0 0.004
5 04:00 68.4 62.3 81 Calm 29.94 1014.0 0.00 0 0.003
5 03:00 69.1 62.0 78 Calm 29.97 1014.9 0.00 0 0.002
5 02:00 69.7 62.2 77.6 69.6 77 Calm 29.99 1015.5 0.00 0 0.001
5 01:00 69.9 61.6 75 Calm 30.01 1016.2 0.00 0 0.000
5 00:00 71.0 61.9 73 Calm 30.03 1016.9 0.00 0 0.227
4 23:00 71.9 60.8 68 Calm 30.04 1017.3 0.00 0 0.226
4 22:00 73.5 61.5 66 Calm 30.05 1017.7 0.00 0 0.225
4 21:00 75.6 60.3 59 Calm 30.05 1017.6 0.00 0 0.224
4 20:00 77.6 60.2 88.1 77.6 55 W 0 G 1 30.06 1017.8 0.00 19 0.222
4 19:00 79.1 62.6 57 W 0 G 2 30.06 1017.8 0.00 84 0.218
4 18:00 79.2 60.1 52 W 0 G 3 30.06 1018.1 0.00 91 0.213
4 17:00 82.6 61.0 48 W 3 G 8 30.08 1018.5 0.00 283 0.200
4 16:00 87.8 62.6 43 WNW 5 G 9 30.09 1019.0 0.00 1157 0.172
4 15:00 86.5 62.7 45 NW 2 G 7 30.11 1019.6 0.00 1165 0.142
4 14:00 85.6 63.1 85.6 66.2 47 W 5 G 11 30.12 1019.9 0.00 1092 0.111
4 13:00 83.2 62.1 49 W 6 G 11 30.13 1020.4 0.00 1181 0.085
4 12:00 82.7 61.0 48 W 3 G 9 30.15 1020.9 0.00 1016 0.059
4 11:00 80.0 61.9 54 WNW 3 G 9 30.14 1020.8 0.00 879 0.038
4 10:00 77.3 61.4 58 NE 0 G 3 30.15 1020.9 0.00 800 0.021
4 09:00 73.1 61.1 66 WSW 1 G 2 30.16 1021.3 0.00 605 0.009
4 08:00 66.2 58.8 66.2 55.1 77 Calm 30.16 1021.3 0.00 380 0.004
4 07:00 56.6 53.7 90 Calm 30.15 1021.2 0.00 151 0.003
4 06:00 55.2 52.0 89 Calm 30.15 1021.1 0.00 11 0.003
4 05:00 55.9 52.4 88 Calm 30.14 1020.6 0.00 0 0.003
4 04:00 56.6 52.8 87 Calm 30.14 1020.5 0.00 0 0.003
4 03:00 57.4 52.6 84 Calm 30.13 1020.5 0.00 0 0.002
4 02:00 58.6 52.8 73.4 58.6 81 Calm 30.13 1020.4 0.00 0 0.001
4 01:00 59.6 51.3 74 Calm 30.13 1020.5 0.00 0 0.000
4 00:00 61.1 51.3 70 Calm 30.12 1020.1 0.00 0 0.248
3 23:00 62.9 50.5 64 Calm 30.12 1019.9 0.00 0 0.247
3 22:00 65.0 51.2 61 Calm 30.10 1019.5 0.00 0 0.247
3 21:00 69.2 51.9 54 SSW 0 G 1 30.09 1019.1 0.00 0 0.246
3 20:00 73.4 53.1 81.4 73.4 49 SW 0 G 7 30.09 1019.1 0.00 32 0.241
3 19:00 77.1 55.9 48 SSW 2 G 9 30.09 1018.9 0.00 327 0.230
3 18:00 77.9 56.1 47 WNW 3 G 9 30.09 1019.0 0.00 81 0.217
3 17:00 78.3 52.7 41 W 3 G 10 30.08 1018.8 0.00 230 0.208
3 16:00 81.3 51.8 36 NW 3 G 10 30.09 1019.0 0.00 953 0.179

Data generated by WxSolution Version 1.9.1.5, Build 2018.05.20.